Time;durP1;ratioP1;P1;durP2;ratioP2;P2;SDS_P1;SDS_P2;PMS_P1;PMS_P2;Temp;Humidity;BMP_temperature;BMP_pressure;BME280_temperature;BME280_humidity;BME280_pressure;Samples;Min_cycle;Max_cycle;Signal;HPM_P1;HPM_P2
2021/01/15 00:01:02;;;;;;;3.78;2.30;;;;;;;19.57;40.54;100269.72;5059230;28;20405;-75
2021/01/15 00:03:27;;;;;;;3.70;1.85;;;;;;;19.56;40.60;100274.97;5061293;28;20040;-74
2021/01/15 00:05:54;;;;;;;3.85;2.05;;;;;;;19.57;40.60;100274.97;5059739;28;20123;-74
2021/01/15 00:08:20;;;;;;;3.88;2.22;;;;;;;19.55;40.57;100279.38;5058802;28;20033;-74
2021/01/15 00:10:45;;;;;;;4.75;2.03;;;;;;;19.55;40.58;100292.53;5062227;28;20033;-73
2021/01/15 00:13:11;;;;;;;2.65;1.70;;;;;;;19.53;40.46;100282.94;5059300;28;20036;-73
2021/01/15 00:15:37;;;;;;;2.92;1.67;;;;;;;19.53;40.51;100285.56;5060895;28;20032;-74
2021/01/15 00:18:03;;;;;;;3.03;2.13;;;;;;;19.52;40.54;100292.56;5060177;28;20037;-75
2021/01/15 00:20:29;;;;;;;3.63;1.80;;;;;;;19.54;40.48;100293.41;5061098;28;20036;-75
2021/01/15 00:22:54;;;;;;;4.63;1.85;;;;;;;19.54;40.48;100297.81;5063099;28;20048;-75
2021/01/15 00:25:20;;;;;;;7.57;1.92;;;;;;;19.52;40.54;100296.97;5065459;28;20386;-73
2021/01/15 00:27:45;;;;;;;3.58;1.83;;;;;;;19.52;40.37;100299.59;5050717;28;20033;-73
2021/01/15 00:30:11;;;;;;;4.93;1.95;;;;;;;19.52;40.61;100310.97;5051140;28;20068;-75
2021/01/15 00:32:37;;;;;;;3.65;1.90;;;;;;;19.52;40.56;100312.75;5062938;28;20035;-74
2021/01/15 00:35:06;;;;;;;4.18;1.90;;;;;;;19.48;40.40;100310.16;5070571;28;20045;-73
2021/01/15 00:37:31;;;;;;;3.28;2.13;;;;;;;19.48;40.50;100315.41;5069602;28;20036;-73
2021/01/15 00:40:00;;;;;;;3.78;2.20;;;;;;;19.48;40.27;100322.41;5066839;28;20068;-73
2021/01/15 00:42:25;;;;;;;4.05;1.73;;;;;;;19.48;40.48;100328.56;5071589;28;20086;-76
2021/01/15 00:44:55;;;;;;;3.30;1.80;;;;;;;19.48;40.58;100325.94;5074513;28;20032;-73
2021/01/15 00:47:21;;;;;;;3.33;1.92;;;;;;;19.49;40.49;100339.91;5074204;28;20093;-75
2021/01/15 00:49:51;;;;;;;2.75;1.58;;;;;;;19.49;40.38;100342.53;5074109;28;20040;-75
2021/01/15 00:52:17;;;;;;;2.50;1.63;;;;;;;19.49;40.31;100345.19;5074275;28;20111;-74
2021/01/15 00:54:42;;;;;;;2.72;1.65;;;;;;;19.50;40.37;100346.06;5074048;28;20441;-75
2021/01/15 00:57:09;;;;;;;2.33;1.60;;;;;;;19.48;40.26;100357.47;5073966;28;20032;-76
2021/01/15 00:59:34;;;;;;;3.67;1.88;;;;;;;19.47;40.32;100358.34;5071229;28;20052;-73
2021/01/15 01:02:00;;;;;;;2.80;1.60;;;;;;;19.48;40.46;100356.59;5060672;28;20121;-75
2021/01/15 01:04:26;;;;;;;3.28;1.60;;;;;;;19.48;40.32;100361.84;5072291;28;20037;-73
2021/01/15 01:06:52;;;;;;;3.15;1.75;;;;;;;19.52;40.11;100367.94;5062462;28;20044;-74
2021/01/15 01:09:17;;;;;;;3.42;1.65;;;;;;;19.47;40.29;100368.88;5054165;28;20523;-74
2021/01/15 01:11:42;;;;;;;2.63;1.30;;;;;;;19.47;40.31;100374.13;5068162;28;20025;-73
2021/01/15 01:14:08;;;;;;;2.63;1.48;;;;;;;19.47;40.12;100378.50;5074101;28;20040;-74
2021/01/15 01:16:34;;;;;;;3.25;1.67;;;;;;;19.46;40.54;100382.06;5074065;28;20039;-74
2021/01/15 01:18:59;;;;;;;4.22;1.83;;;;;;;19.47;40.46;100394.25;5073496;28;20032;-75
2021/01/15 01:21:25;;;;;;;2.42;1.58;;;;;;;19.48;40.26;100390.75;5072622;28;20485;-73
2021/01/15 01:23:52;;;;;;;4.78;2.10;;;;;;;19.47;40.07;100392.53;5073588;28;20043;-73
2021/01/15 01:26:18;;;;;;;3.20;1.63;;;;;;;19.45;40.29;100396.06;5073451;28;20394;-76
2021/01/15 01:28:45;;;;;;;1.98;1.40;;;;;;;19.46;40.14;100400.44;5073550;28;20032;-75
2021/01/15 01:31:12;;;;;;;3.13;1.73;;;;;;;19.48;40.31;100401.25;5073811;28;20036;-74
2021/01/15 01:33:38;;;;;;;2.38;1.52;;;;;;;19.46;40.13;100416.22;5073209;28;20447;-74
2021/01/15 01:36:05;;;;;;;2.15;1.38;;;;;;;19.45;40.42;100417.97;5073443;28;20047;-74
2021/01/15 01:38:31;;;;;;;1.80;1.30;;;;;;;19.46;40.34;100426.72;5070532;28;20413;-75
2021/01/15 01:40:56;;;;;;;2.63;1.45;;;;;;;19.44;40.17;100431.13;5072053;28;20041;-74
2021/01/15 01:43:22;;;;;;;2.50;1.48;;;;;;;19.46;40.27;100429.34;5073398;28;20047;-76
2021/01/15 01:45:47;;;;;;;2.75;1.52;;;;;;;19.44;39.88;100434.63;5073522;28;20522;-76
2021/01/15 01:48:14;;;;;;;2.00;1.33;;;;;;;19.45;40.27;100438.13;5071523;28;20061;-75
2021/01/15 01:50:42;;;;;;;2.55;1.45;;;;;;;19.44;40.17;100437.25;5073131;28;20035;-74
2021/01/15 01:53:12;;;;;;;2.88;1.50;;;;;;;19.44;40.37;100446.91;5071586;28;20039;-75
2021/01/15 01:55:39;;;;;;;3.30;2.00;;;;;;;19.45;40.00;100454.75;5072909;28;20040;-73
2021/01/15 01:58:05;;;;;;;2.72;1.48;;;;;;;19.45;40.07;100461.78;5073107;28;20115;-75
2021/01/15 02:00:32;;;;;;;2.97;1.77;;;;;;;19.44;40.16;100458.28;5065652;28;20037;-75
2021/01/15 02:02:58;;;;;;;2.80;1.67;;;;;;;19.44;39.99;100462.66;5067646;28;20040;-73
2021/01/15 02:05:25;;;;;;;2.22;1.40;;;;;;;19.42;40.10;100460.03;5072726;28;20040;-76
2021/01/15 02:07:52;;;;;;;3.38;1.50;;;;;;;19.42;40.04;100465.31;5072854;28;20489;-73
2021/01/15 02:10:31;;;;;;;1.77;1.40;;;;;;;19.44;40.03;100475.81;5070302;28;20492;-73
2021/01/15 02:12:56;;;;;;;3.00;1.52;;;;;;;19.44;40.02;100474.03;5053017;28;20572;-72
2021/01/15 02:15:49;;;;;;;1.40;1.08;;;;;;;19.44;39.99;100476.66;5052530;28;20108;-73
2021/01/15 02:18:30;;;;;;;2.55;1.58;;;;;;;19.43;40.09;100488.06;5052644;28;20033;-74
2021/01/15 02:21:36;;;;;;;2.28;1.33;;;;;;;19.41;40.22;100487.22;5052548;28;20037;-72
2021/01/15 02:24:19;;;;;;;4.10;1.95;;;;;;;19.41;40.20;100489.00;5055902;28;20060;-73
2021/01/15 02:27:06;;;;;;;1.88;1.40;;;;;;;19.42;40.11;100488.94;5052098;28;20044;-74
2021/01/15 02:29:32;;;;;;;2.72;1.40;;;;;;;19.42;39.88;100490.72;5052252;28;20112;-74
2021/01/15 02:32:23;;;;;;;2.33;1.63;;;;;;;19.43;39.92;100495.94;5060094;28;20024;-75
2021/01/15 02:35:09;;;;;;;1.95;1.40;;;;;;;19.42;39.92;100498.63;5072061;28;20048;-76
2021/01/15 02:38:02;;;;;;;1.88;1.30;;;;;;;19.41;39.98;100496.88;5072336;28;20070;-74
2021/01/15 02:41:16;;;;;;;2.47;1.30;;;;;;;19.41;39.96;100504.75;5067868;28;20394;-74
2021/01/15 02:43:42;;;;;;;2.33;1.25;;;;;;;19.39;39.78;100510.00;5069017;28;20468;-74
2021/01/15 02:46:13;;;;;;;3.25;1.65;;;;;;;19.42;40.09;100517.00;5071963;28;20033;-73
2021/01/15 02:48:41;;;;;;;3.75;1.73;;;;;;;19.40;39.79;100522.25;5070300;28;20423;-75
2021/01/15 02:51:06;;;;;;;2.85;1.63;;;;;;;19.38;39.93;100516.19;5072123;28;20032;-74
2021/01/15 02:53:33;;;;;;;2.72;1.65;;;;;;;19.40;39.78;100524.91;5072247;28;20048;-74
2021/01/15 02:55:59;;;;;;;2.70;1.60;;;;;;;19.40;39.75;100519.63;5070463;28;20029;-74
2021/01/15 02:58:24;;;;;;;3.33;1.50;;;;;;;19.42;39.91;100530.16;5071733;28;20047;-72
2021/01/15 03:00:49;;;;;;;2.65;1.80;;;;;;;19.39;39.73;100536.28;5071947;28;20028;-75
2021/01/15 03:03:32;;;;;;;1.85;1.10;;;;;;;19.39;39.74;100538.91;5054149;28;20040;-73
2021/01/15 03:06:04;;;;;;;2.65;1.65;;;;;;;19.40;39.96;100537.19;5051080;28;20045;-73
2021/01/15 03:08:30;;;;;;;2.45;1.40;;;;;;;19.40;39.82;100535.41;5050517;28;20033;-74
2021/01/15 03:11:00;;;;;;;2.90;1.48;;;;;;;19.39;39.89;100544.19;5058205;28;20420;-73
2021/01/15 03:13:28;;;;;;;3.22;1.67;;;;;;;19.38;39.84;100542.47;5071752;28;20040;-75
2021/01/15 03:15:57;;;;;;;2.55;1.38;;;;;;;19.39;39.96;100546.81;5071421;28;20133;-74
2021/01/15 03:18:23;;;;;;;2.25;1.42;;;;;;;19.39;39.90;100549.44;5071617;28;20032;-74
2021/01/15 03:20:49;;;;;;;2.53;1.60;;;;;;;19.38;39.80;100552.97;5071580;28;20039;-73
2021/01/15 03:23:14;;;;;;;3.30;1.80;;;;;;;19.37;39.68;100559.13;5071711;28;20033;-73
2021/01/15 03:25:39;;;;;;;1.88;1.13;;;;;;;19.40;39.57;100566.94;5071140;28;20041;-74
2021/01/15 03:28:05;;;;;;;2.63;1.63;;;;;;;19.39;39.74;100570.47;5071439;28;20094;-73
2021/01/15 03:30:30;;;;;;;2.25;1.63;;;;;;;19.37;39.74;100577.53;5071721;28;20075;-73
2021/01/15 03:32:59;;;;;;;3.03;1.67;;;;;;;19.38;39.43;100584.50;5071271;28;20419;-74
2021/01/15 03:35:25;;;;;;;2.75;1.50;;;;;;;19.38;39.69;100581.88;5071536;28;20044;-73
2021/01/15 03:37:59;;;;;;;2.53;1.30;;;;;;;19.39;39.59;100585.38;5071437;28;20032;-73
2021/01/15 03:40:27;;;;;;;2.30;1.50;;;;;;;19.38;39.64;100581.88;5071401;28;20047;-76
2021/01/15 03:42:53;;;;;;;3.22;1.40;;;;;;;19.36;39.38;100583.66;5070955;28;20028;-74
2021/01/15 03:45:19;;;;;;;2.08;1.42;;;;;;;19.38;39.63;100586.25;5071725;28;20043;-72
2021/01/15 03:47:44;;;;;;;3.47;1.55;;;;;;;19.36;39.72;100590.66;5071454;28;20036;-77
2021/01/15 03:50:10;;;;;;;3.08;1.27;;;;;;;19.38;39.83;100591.50;5071390;28;20062;-73
2021/01/15 03:52:36;;;;;;;3.35;1.48;;;;;;;19.38;39.46;100595.03;5071386;28;20085;-74
2021/01/15 03:55:01;;;;;;;3.78;1.50;;;;;;;19.37;39.72;100597.66;5071084;28;20025;-74
2021/01/15 03:57:27;;;;;;;2.72;1.58;;;;;;;19.36;39.06;100593.28;5070871;28;20087;-75
2021/01/15 03:59:52;;;;;;;2.58;1.40;;;;;;;19.36;39.68;100596.81;5071348;28;20033;-73
2021/01/15 04:02:17;;;;;;;2.67;1.50;;;;;;;19.36;39.54;100601.16;5062010;28;20029;-73
2021/01/15 04:04:48;;;;;;;1.95;1.20;;;;;;;19.36;39.29;100612.56;5051049;28;20037;-75
2021/01/15 04:07:14;;;;;;;1.90;1.38;;;;;;;19.36;39.60;100607.31;5051252;28;20028;-73
2021/01/15 04:09:39;;;;;;;2.95;1.75;;;;;;;19.37;39.32;100614.31;5051348;28;20524;-73
2021/01/15 04:12:05;;;;;;;2.63;1.60;;;;;;;19.37;39.45;100613.41;5050620;28;20033;-72
2021/01/15 04:14:30;;;;;;;3.67;1.30;;;;;;;19.36;39.27;100611.69;5051048;28;20032;-73
2021/01/15 04:16:55;;;;;;;2.35;1.30;;;;;;;19.34;39.53;100619.59;5053691;28;20322;-73
2021/01/15 04:19:21;;;;;;;2.58;1.48;;;;;;;19.34;39.45;100616.97;5053383;28;20029;-73
2021/01/15 04:21:46;;;;;;;2.72;1.50;;;;;;;19.35;39.41;100623.97;5051888;28;20120;-76
2021/01/15 04:24:11;;;;;;;3.42;1.83;;;;;;;19.34;39.62;100622.22;5053163;28;20119;-73
2021/01/15 04:26:37;;;;;;;3.00;1.40;;;;;;;19.33;39.57;100631.00;5053346;28;20100;-77
2021/01/15 04:29:04;;;;;;;3.30;1.60;;;;;;;19.34;39.52;100627.47;5054553;28;20025;-76
2021/01/15 04:31:30;;;;;;;2.65;1.38;;;;;;;19.35;39.45;100630.97;5054713;28;20040;-73
2021/01/15 04:33:55;;;;;;;3.15;1.83;;;;;;;19.33;39.39;100638.88;5053348;28;20041;-75
2021/01/15 04:36:20;;;;;;;3.10;1.40;;;;;;;19.32;39.43;100632.72;5067405;28;20443;-75
2021/01/15 04:38:47;;;;;;;4.18;1.70;;;;;;;19.33;39.37;100644.13;5070195;28;20482;-75
2021/01/15 04:41:20;;;;;;;6.57;1.60;;;;;;;19.32;39.66;100651.13;5073778;28;20509;-74
2021/01/15 04:43:53;;;;;;;1.73;1.40;;;;;;;19.33;39.30;100654.63;5074474;28;20435;-74
2021/01/15 04:46:21;;;;;;;4.18;1.20;;;;;;;19.34;39.38;100659.00;5074438;28;20123;-74
2021/01/15 04:48:49;;;;;;;2.50;1.42;;;;;;;19.33;39.52;100663.38;5056038;28;20029;-74
2021/01/15 04:51:19;;;;;;;2.13;1.30;;;;;;;19.35;39.38;100666.00;5074426;28;20029;-73
2021/01/15 04:53:52;;;;;;;2.80;1.50;;;;;;;19.36;39.25;100673.00;5074288;28;20467;-74
2021/01/15 04:56:23;;;;;;;2.60;1.50;;;;;;;19.34;39.33;100672.16;5073379;28;20075;-73
2021/01/15 04:58:51;;;;;;;4.28;1.60;;;;;;;19.33;39.14;100665.16;5089622;28;20410;-73
2021/01/15 05:01:16;;;;;;;1.30;1.10;;;;;;;19.38;39.28;100675.59;5071586;28;20552;-74
2021/01/15 05:03:42;;;;;;;3.60;1.63;;;;;;;19.37;39.25;100676.50;5053988;28;20103;-73
2021/01/15 05:06:08;;;;;;;2.28;1.15;;;;;;;19.37;39.25;100677.38;5069241;28;20067;-74
2021/01/15 05:08:38;;;;;;;2.55;1.45;;;;;;;19.38;39.25;100683.50;5069253;28;20094;-74
2021/01/15 05:11:03;;;;;;;3.38;1.80;;;;;;;19.38;39.11;100680.88;5053631;28;20125;-73
2021/01/15 05:13:35;;;;;;;3.40;1.58;;;;;;;19.35;39.20;100683.53;5053714;28;20061;-73
2021/01/15 05:16:03;;;;;;;2.80;1.50;;;;;;;19.32;39.33;100680.03;5053854;28;20116;-73
2021/01/15 05:18:31;;;;;;;3.30;1.20;;;;;;;19.30;39.29;100686.19;5053528;28;20033;-72
2021/01/15 05:20:57;;;;;;;1.80;1.38;;;;;;;19.32;39.35;100693.16;5053525;28;20118;-72
2021/01/15 05:23:23;;;;;;;4.15;1.67;;;;;;;19.29;38.96;100687.97;5053929;28;20549;-72
2021/01/15 05:25:48;;;;;;;2.35;1.40;;;;;;;19.28;39.12;100694.09;5053404;28;20037;-75
2021/01/15 05:28:18;;;;;;;3.25;2.05;;;;;;;19.29;39.18;100692.34;5070452;28;20079;-74
2021/01/15 05:30:44;;;;;;;2.33;1.35;;;;;;;19.28;39.31;100691.47;5072416;28;20501;-75
2021/01/15 05:33:14;;;;;;;2.88;1.17;;;;;;;19.28;39.17;100701.09;5073451;28;20103;-76
2021/01/15 05:35:41;;;;;;;3.35;1.33;;;;;;;19.29;39.04;100705.47;5073370;28;20040;-75
2021/01/15 05:38:06;;;;;;;2.65;1.52;;;;;;;19.30;39.35;100705.47;5073413;28;20040;-73
2021/01/15 05:40:43;;;;;;;2.03;1.42;;;;;;;19.30;38.88;100707.22;5073359;28;20032;-73
2021/01/15 05:43:21;;;;;;;2.58;1.45;;;;;;;19.31;39.14;100711.59;5073341;28;20029;-73
2021/01/15 05:46:03;;;;;;;1.85;1.40;;;;;;;19.28;39.13;100717.75;5073470;28;20040;-76
2021/01/15 05:48:28;;;;;;;3.08;1.58;;;;;;;19.29;39.04;100722.13;5072989;28;20040;-74
2021/01/15 05:50:54;;;;;;;3.33;1.65;;;;;;;19.30;39.05;100723.88;5073203;28;20106;-73
2021/01/15 05:53:19;;;;;;;2.63;1.50;;;;;;;19.31;39.03;100724.72;5073040;28;20028;-73
2021/01/15 05:56:00;;;;;;;3.13;1.67;;;;;;;19.30;39.31;100725.63;5072781;28;20039;-73
2021/01/15 05:58:25;;;;;;;2.75;1.60;;;;;;;19.32;39.20;100729.97;5072870;28;20111;-73
2021/01/15 06:00:52;;;;;;;2.88;1.42;;;;;;;19.31;39.23;100732.63;5073147;28;20549;-73
2021/01/15 06:03:18;;;;;;;3.03;1.80;;;;;;;19.32;39.23;100739.63;5055232;28;20509;-77
2021/01/15 06:05:49;;;;;;;3.90;1.70;;;;;;;19.31;39.01;100733.47;5052775;28;20501;-72
2021/01/15 06:08:14;;;;;;;3.15;1.63;;;;;;;19.31;39.21;100746.63;5067973;28;20051;-75
2021/01/15 06:10:42;;;;;;;2.83;1.70;;;;;;;19.32;38.90;100744.88;5052536;28;20035;-73
2021/01/15 06:13:08;;;;;;;2.08;1.55;;;;;;;19.33;39.03;100750.09;5052965;28;20048;-73
2021/01/15 06:15:49;;;;;;;2.70;1.40;;;;;;;19.31;39.08;100761.53;5051589;28;20493;-74
2021/01/15 06:18:18;;;;;;;1.60;1.17;;;;;;;19.30;38.97;100767.66;5052598;28;20104;-74
2021/01/15 06:20:45;;;;;;;3.80;1.90;;;;;;;19.28;39.00;100761.53;5052755;28;20029;-74
2021/01/15 06:23:14;;;;;;;2.70;1.40;;;;;;;19.30;39.05;100765.91;5052676;28;20029;-72
2021/01/15 06:25:58;;;;;;;2.75;1.80;;;;;;;19.30;38.92;100767.66;5051036;28;20086;-73
2021/01/15 06:28:31;;;;;;;9.50;2.47;;;;;;;19.31;39.16;100769.41;5071536;28;20117;-73
2021/01/15 06:31:03;;;;;;;3.33;1.95;;;;;;;19.30;39.01;100771.19;5072225;28;20039;-74
2021/01/15 06:33:29;;;;;;;3.47;1.80;;;;;;;19.29;38.82;100773.81;5062827;28;20036;-75
2021/01/15 06:35:54;;;;;;;3.22;1.65;;;;;;;19.31;38.92;100774.66;5055009;28;20401;-72
2021/01/15 06:38:26;;;;;;;2.50;1.70;;;;;;;19.31;39.00;100780.78;5068852;28;20405;-72
2021/01/15 06:40:52;;;;;;;6.85;2.30;;;;;;;19.33;39.24;100788.66;5069551;28;20028;-75
2021/01/15 06:43:22;;;;;;;3.83;2.15;;;;;;;19.37;39.31;100790.38;5070662;28;20035;-78
2021/01/15 06:46:12;;;;;;;6.60;2.30;;;;;;;19.36;39.36;100793.91;5067630;28;20087;-78
2021/01/15 06:48:39;;;;;;;6.97;1.85;;;;;;;19.37;39.15;100793.03;5071041;28;20420;-78
2021/01/15 06:51:05;;;;;;;4.53;2.03;;;;;;;19.40;39.18;100802.63;5062696;28;20186;-74
2021/01/15 06:53:33;;;;;;;4.35;2.08;;;;;;;19.43;39.17;100802.59;5071212;28;20028;-75
2021/01/15 06:56:00;;;;;;;3.42;2.05;;;;;;;19.45;39.31;100808.72;5071175;28;20516;-74
2021/01/15 06:58:38;;;;;;;8.63;2.95;;;;;;;19.44;39.15;100805.19;5070153;28;20060;-74
2021/01/15 07:01:09;;;;;;;5.00;2.00;;;;;;;19.43;39.10;100807.84;5069622;28;20071;-75
2021/01/15 07:04:08;;;;;;;7.80;2.78;;;;;;;19.44;39.25;100826.22;5069847;28;20501;-75
2021/01/15 07:06:37;;;;;;;6.00;2.67;;;;;;;19.42;39.17;100822.75;5069362;28;20535;-74
2021/01/15 07:09:05;;;;;;;7.25;2.95;;;;;;;19.42;38.93;100820.13;5067987;28;20032;-74
2021/01/15 07:11:32;;;;;;;9.48;2.95;;;;;;;19.43;39.22;100829.75;5069419;28;20066;-74
2021/01/15 07:14:00;;;;;;;8.80;3.03;;;;;;;19.43;39.34;100821.84;5070013;28;20058;-73
2021/01/15 07:16:36;;;;;;;5.32;2.03;;;;;;;19.43;39.34;100821.84;5070164;28;20032;-77
2021/01/15 07:19:05;;;;;;;3.97;2.55;;;;;;;19.42;39.36;100827.13;5069370;28;20030;-76
2021/01/15 07:21:37;;;;;;;8.50;3.47;;;;;;;19.45;39.57;100835.88;5069049;28;20111;-74
2021/01/15 07:24:05;;;;;;;13.60;3.53;;;;;;;19.46;39.60;100839.38;5070184;28;20055;-74
2021/01/15 07:26:42;;;;;;;11.68;3.17;;;;;;;19.45;39.33;100842.91;5068809;28;20043;-77
2021/01/15 07:29:15;;;;;;;7.40;3.13;;;;;;;19.45;39.17;100849.00;5064273;28;20028;-77
2021/01/15 07:31:44;;;;;;;7.63;3.22;;;;;;;19.42;39.54;100849.03;5069025;28;20024;-76
2021/01/15 07:34:16;;;;;;;10.00;3.45;;;;;;;19.43;39.23;100853.41;5067157;28;20410;-75
2021/01/15 07:36:41;;;;;;;4.88;2.70;;;;;;;19.41;39.16;100857.78;5067728;28;20138;-76
2021/01/15 07:39:10;;;;;;;11.85;3.45;;;;;;;19.42;39.19;100858.69;5070065;28;20060;-76
2021/01/15 07:41:53;;;;;;;8.65;3.00;;;;;;;19.42;39.05;100871.81;5066648;28;20444;-75
2021/01/15 07:44:21;;;;;;;4.80;2.70;;;;;;;19.42;39.12;100874.44;5064668;28;20068;-75
2021/01/15 07:46:47;;;;;;;7.57;2.97;;;;;;;19.41;39.24;100875.34;5071225;28;20037;-74
2021/01/15 07:49:13;;;;;;;10.63;3.70;;;;;;;19.41;39.04;100877.97;5071017;28;20047;-77
2021/01/15 07:51:38;;;;;;;6.85;2.88;;;;;;;19.40;38.91;100884.09;5071122;28;20127;-77
2021/01/15 07:54:03;;;;;;;8.48;2.58;;;;;;;19.40;38.87;100886.72;5073830;28;20116;-75
2021/01/15 07:56:30;;;;;;;5.55;2.63;;;;;;;19.39;38.93;100892.88;5068971;28;20090;-75
2021/01/15 07:58:55;;;;;;;6.53;3.40;;;;;;;19.40;38.80;100891.97;5088257;28;20040;-75
2021/01/15 08:01:21;;;;;;;5.63;2.60;;;;;;;19.39;38.97;100892.88;5073755;28;20036;-76
2021/01/15 08:03:58;;;;;;;8.70;2.88;;;;;;;19.39;39.12;100901.59;5073229;28;20032;-77
2021/01/15 08:06:25;;;;;;;10.05;2.78;;;;;;;19.36;38.93;100909.53;5073499;28;20572;-77
2021/01/15 08:09:04;;;;;;;7.65;3.03;;;;;;;19.38;38.71;100910.41;5069785;28;20052;-76
2021/01/15 08:11:55;;;;;;;8.07;2.40;;;;;;;19.37;39.07;100918.28;5067131;28;20044;-75
2021/01/15 08:14:21;;;;;;;7.28;3.60;;;;;;;19.37;38.75;100915.66;5074820;28;20041;-78
2021/01/15 08:16:47;;;;;;;7.55;2.60;;;;;;;19.37;38.58;100913.91;5073803;28;20032;-76
2021/01/15 08:19:15;;;;;;;5.28;3.05;;;;;;;19.39;38.75;100929.66;5074500;28;20044;-75
2021/01/15 08:21:42;;;;;;;5.80;3.00;;;;;;;19.38;38.66;100933.16;5073344;28;20036;-78
2021/01/15 08:24:07;;;;;;;5.65;2.67;;;;;;;19.38;38.98;100941.94;5074216;28;20045;-79
2021/01/15 08:26:35;;;;;;;5.30;2.88;;;;;;;19.38;38.60;100943.69;5078482;28;20048;-74
2021/01/15 08:29:03;;;;;;;5.88;2.67;;;;;;;19.38;38.86;100952.47;5074694;28;20170;-75
2021/01/15 08:31:29;;;;;;;4.63;3.22;;;;;;;19.39;38.77;100959.44;5075057;28;20032;-76
2021/01/15 08:34:08;;;;;;;5.20;2.78;;;;;;;19.39;38.66;100956.81;5074161;28;20375;-76
2021/01/15 08:36:37;;;;;;;7.18;2.60;;;;;;;19.39;38.49;100961.19;5074228;28;20037;-77
2021/01/15 08:39:03;;;;;;;3.35;2.28;;;;;;;19.39;38.44;100963.81;5073543;28;20071;-76
2021/01/15 08:41:28;;;;;;;4.85;2.78;;;;;;;19.39;38.64;100964.69;5073211;28;20501;-74
2021/01/15 08:43:54;;;;;;;4.53;2.63;;;;;;;19.38;38.66;100965.59;5063761;28;20033;-74
2021/01/15 08:46:21;;;;;;;5.10;2.58;;;;;;;19.38;38.53;100970.84;5070456;28;20043;-75
2021/01/15 08:48:47;;;;;;;3.33;1.90;;;;;;;19.39;38.65;100967.31;5073644;28;20083;-76
2021/01/15 08:51:19;;;;;;;5.30;2.92;;;;;;;19.40;38.67;100969.06;5056269;28;20064;-77
2021/01/15 08:54:04;;;;;;;3.85;2.28;;;;;;;19.40;38.71;100976.94;5074190;28;20037;-76
2021/01/15 08:56:34;;;;;;;3.95;2.45;;;;;;;19.40;38.74;100976.94;5073766;28;20032;-76
2021/01/15 08:58:59;;;;;;;5.32;2.42;;;;;;;19.50;38.47;100984.78;5068625;28;20040;-74
2021/01/15 09:01:29;;;;;;;4.47;3.08;;;;;;;19.54;38.59;100984.75;5074275;28;20115;-76
2021/01/15 09:03:57;;;;;;;5.15;2.60;;;;;;;19.48;38.37;100984.78;5071283;28;20036;-75
2021/01/15 09:06:24;;;;;;;5.55;2.70;;;;;;;19.50;38.68;100995.31;5073960;28;20037;-77
2021/01/15 09:08:54;;;;;;;7.70;2.80;;;;;;;19.50;38.46;101005.81;5055796;28;20587;-75
2021/01/15 09:11:23;;;;;;;9.38;3.15;;;;;;;19.55;38.52;101007.53;5069344;28;20539;-73
2021/01/15 09:13:49;;;;;;;14.10;3.25;;;;;;;19.56;38.34;101014.56;5053954;28;20037;-72
2021/01/15 09:16:16;;;;;;;10.75;3.17;;;;;;;19.54;38.21;101015.44;5065599;28;20075;-78
2021/01/15 09:18:42;;;;;;;25.73;3.75;;;;;;;19.60;38.54;101016.28;5073636;28;20039;-80
2021/01/15 09:21:07;;;;;;;14.20;3.58;;;;;;;19.62;38.38;101025.00;5073854;28;20043;-73
2021/01/15 09:23:33;;;;;;;12.40;3.65;;;;;;;19.62;38.34;101026.78;5074104;28;20036;-76
2021/01/15 09:25:58;;;;;;;13.27;3.30;;;;;;;19.66;38.29;101031.16;5073553;28;20111;-76
2021/01/15 09:28:23;;;;;;;10.88;3.08;;;;;;;19.72;38.30;101035.50;5054256;28;20124;-74
2021/01/15 09:30:49;;;;;;;8.52;2.83;;;;;;;19.71;38.26;101039.00;5053279;28;20040;-76
2021/01/15 09:33:14;;;;;;;25.98;4.95;;;;;;;19.67;38.06;101039.91;5052272;28;20033;-73
2021/01/15 09:35:39;;;;;;;14.43;3.83;;;;;;;19.63;38.17;101046.94;5053657;28;20040;-75
2021/01/15 09:38:05;;;;;;;25.73;5.18;;;;;;;19.59;38.08;101045.19;5053224;28;20445;-74
2021/01/15 09:40:30;;;;;;;12.45;4.07;;;;;;;19.58;38.02;101038.19;5068556;28;20037;-74
2021/01/15 09:42:55;;;;;;;14.20;4.15;;;;;;;19.57;37.88;101050.47;5073348;28;20041;-73
2021/01/15 09:45:21;;;;;;;17.98;3.88;;;;;;;19.56;37.98;101055.72;5072816;28;20060;-77
2021/01/15 09:47:46;;;;;;;11.80;4.05;;;;;;;19.53;38.14;101054.00;5073311;28;20541;-77
2021/01/15 09:50:12;;;;;;;7.72;3.35;;;;;;;19.52;37.99;101060.13;5073290;28;20048;-75
2021/01/15 09:52:39;;;;;;;14.98;3.80;;;;;;;19.53;38.19;101058.41;5073168;28;20044;-75
2021/01/15 09:55:05;;;;;;;15.63;3.88;;;;;;;19.54;37.99;101066.25;5072396;28;20041;-73
2021/01/15 09:57:30;;;;;;;10.07;3.13;;;;;;;19.52;38.12;101070.66;5071824;28;20489;-73
2021/01/15 09:59:55;;;;;;;7.93;3.20;;;;;;;19.54;38.28;101082.03;5072734;28;20051;-77
2021/01/15 10:02:21;;;;;;;13.82;3.40;;;;;;;19.54;38.44;101086.44;5072857;28;20041;-80
2021/01/15 10:04:46;;;;;;;12.07;4.07;;;;;;;19.56;38.57;101082.00;5071163;28;20392;-77
2021/01/15 10:07:12;;;;;;;11.27;3.85;;;;;;;19.57;38.00;101087.28;5073493;28;20032;-79
2021/01/15 10:09:37;;;;;;;9.85;3.95;;;;;;;19.58;38.72;101093.41;5091225;28;20050;-77
2021/01/15 10:12:03;;;;;;;15.65;4.05;;;;;;;19.58;38.48;101096.03;5075489;28;20040;-74
2021/01/15 10:14:28;;;;;;;10.55;3.92;;;;;;;19.58;38.44;101102.19;5071605;28;20033;-72
2021/01/15 10:16:54;;;;;;;11.75;4.00;;;;;;;19.55;38.45;101104.81;5070929;28;20037;-74
2021/01/15 10:19:20;;;;;;;8.40;3.38;;;;;;;19.56;38.38;101103.03;5072330;28;20033;-78
2021/01/15 10:21:46;;;;;;;15.40;4.32;;;;;;;19.60;38.35;101104.78;5072389;28;20151;-73
2021/01/15 10:24:12;;;;;;;11.15;4.30;;;;;;;19.61;38.37;101101.28;5070669;28;20048;-78
2021/01/15 10:26:39;;;;;;;13.38;4.88;;;;;;;19.64;38.30;101109.16;5072116;28;20463;-75
2021/01/15 10:29:07;;;;;;;10.00;4.78;;;;;;;19.65;38.30;101110.03;5071980;28;20121;-73
2021/01/15 10:31:34;;;;;;;10.60;4.72;;;;;;;19.61;38.29;101111.81;5072643;28;20099;-75
2021/01/15 10:34:01;;;;;;;12.40;5.57;;;;;;;19.58;38.05;101117.06;5066445;28;20041;-73
2021/01/15 10:36:27;;;;;;;11.23;5.38;;;;;;;19.56;38.20;101119.72;5085022;28;20044;-75
2021/01/15 10:38:53;;;;;;;13.60;5.20;;;;;;;19.54;38.28;101124.09;5070442;28;20524;-73
2021/01/15 10:41:33;;;;;;;13.18;5.15;;;;;;;19.52;38.15;101123.22;5082546;28;20039;-72
2021/01/15 10:44:00;;;;;;;9.23;5.05;;;;;;;19.51;38.24;101120.63;5071985;28;20055;-73
2021/01/15 10:46:32;;;;;;;8.05;4.57;;;;;;;19.51;38.21;101134.63;5072297;28;20047;-73
2021/01/15 10:48:59;;;;;;;9.38;5.28;;;;;;;19.51;37.99;101129.38;5072065;28;20051;-74
2021/01/15 10:51:24;;;;;;;11.13;5.35;;;;;;;19.52;37.64;101132.88;5066538;28;20083;-73
2021/01/15 10:53:50;;;;;;;11.93;6.32;;;;;;;19.53;37.88;101132.00;5060195;28;20044;-73
2021/01/15 10:56:15;;;;;;;21.30;6.82;;;;;;;19.52;37.93;101130.25;5067393;28;20028;-72
2021/01/15 10:58:40;;;;;;;11.10;5.65;;;;;;;19.51;37.99;101125.88;5071580;28;20090;-77
2021/01/15 11:01:06;;;;;;;8.30;5.50;;;;;;;19.54;37.61;101123.25;5072283;28;20396;-77
2021/01/15 11:03:31;;;;;;;17.45;6.60;;;;;;;19.58;37.83;101124.94;5052163;28;20493;-76
2021/01/15 11:05:56;;;;;;;8.85;6.05;;;;;;;19.59;37.83;101126.69;5050786;28;20037;-73
2021/01/15 11:08:22;;;;;;;10.95;6.68;;;;;;;19.55;37.96;101128.47;5051745;28;20408;-74
2021/01/15 11:10:47;;;;;;;12.98;6.75;;;;;;;19.54;37.75;101125.88;5056096;28;20098;-72
2021/01/15 11:13:12;;;;;;;7.95;6.00;;;;;;;19.56;37.67;101126.72;5051981;28;20067;-73
2021/01/15 11:15:37;;;;;;;15.10;7.28;;;;;;;19.57;37.52;101134.59;5063633;28;20037;-74
2021/01/15 11:18:03;;;;;;;12.77;6.05;;;;;;;19.57;37.57;101131.09;5052735;28;20037;-72
2021/01/15 11:20:28;;;;;;;8.95;6.32;;;;;;;19.58;37.41;101132.84;5053066;28;20033;-74
2021/01/15 11:22:53;;;;;;;9.35;7.45;;;;;;;19.57;37.50;101137.25;5051806;28;20043;-74
2021/01/15 11:25:19;;;;;;;13.25;7.03;;;;;;;19.54;37.38;101147.75;5054197;28;20124;-76
2021/01/15 11:27:45;;;;;;;7.90;6.68;;;;;;;19.51;37.36;101145.13;5070806;28;20119;-74
2021/01/15 11:30:11;;;;;;;15.65;8.30;;;;;;;19.51;37.29;101146.91;5071530;28;20056;-76